Aeroporto :
LOGIN :

Iscrizione | Disclaimer

   EN    FR    IT 

 










Sommario :    VFR   VFR Marginale   IFR   IFR Intensivo   IFR Molto Intensivo
Visibilità : 
Base nubi : 
>= 8 km
>= 3000ft
5 / 8 km
1000 / 3000 ft
1500m / 5 km
500 / 1000 ft
800 / 1500m
200 / 500 ft
< 800m
< 200 ft
Simboli :   Temporali  Nebbia  Neve Forte  Precipitazioni Forti  Vento > 20 kt
SIGMETs :   Varie  Temporali  Ghiacco  Turbolenza  Onda orograficha  Ceneri Vulcaniche






- Altitudine del aeroporto : 1197 ft
- Codice IATA : SPM


ETAD - Spangdahlem Ab

ULTIMO METAR :
  • 170656Z AUTO 00000KT 9999 OVC060 12/11 A3005 RMK AO2 SLP165 T01230112 $

METARs OBSOLETI :
  • 170556Z AUTO 00000KT 9999 OVC060 11/11 A3005 RMK AO2 SLP165 T01100105 10115 20103 55001 $
  • 170456Z AUTO 00000KT 9999 OVC060 11/11 A3004 RMK AO2 SLP160 T01100107 $

TAF TAF ETAD
Valido dal 17 a 04 ore il 18 a 10 ore UTC


170400Z 1704/1810 VRB02KT 9999 BKN060 QNH3004INS
TEMPO 1704/1707 1200 BR BKN010
BECMG 1708/1709 VRB03KT 9999 BKN025 QNH3001INS
BECMG 1714/1715 VRB01KT 9999 SCT035 QNH2999INS
BECMG 1719/1720 VRB02KT 9999 BKN030 QNH3000INS TX19/1714Z TN10/1704Z



MetMap, La meteo Aeronautica in un colpo d'occhio ! - Copyright ORBIFLY Dicembre 2007 - Disclaimer

ORBIFLY MET'MAP TEAM :

Programmazione e sviluppo : Alexandra Zaïnal
Concezione : Baudouin d'Aumeries
Aiuto per la programmazione : Marc-Olivier Méhu
Supporto tecnico e logistico : Manuel Goepfert
Aiuto per la traduzione : Arnaldo La Scala

Contatto : metmap@orbifly.com




FONTI E CREDITI :

   NOAA